createdAt,value
2022-08-01T00:00:56.184Z,0.00
2022-08-01T00:01:56.127Z,0.00
2022-08-01T00:02:56.118Z,0.00
2022-08-01T00:03:55.978Z,0.00
2022-08-01T00:04:55.952Z,0.00
2022-08-01T00:05:55.893Z,0.00
2022-08-01T00:06:55.873Z,0.00
2022-08-01T00:07:55.779Z,0.00
2022-08-01T00:08:55.776Z,0.00
2022-08-01T00:09:55.696Z,0.00
2022-08-01T00:10:55.665Z,0.00
2022-08-01T00:12:00.093Z,0.00
2022-08-01T00:12:55.573Z,0.00
2022-08-01T00:13:55.487Z,0.00
2022-08-01T00:14:55.469Z,0.00
2022-08-01T00:15:55.437Z,0.00
2022-08-01T00:16:55.344Z,0.00
2022-08-01T00:17:55.310Z,0.00
2022-08-01T00:18:55.252Z,0.00
2022-08-01T00:19:55.182Z,0.00
2022-08-01T00:20:55.177Z,0.00
2022-08-01T00:21:55.125Z,0.00
2022-08-01T00:22:55.070Z,0.00
2022-08-01T00:23:55.011Z,0.00
2022-08-01T00:24:54.997Z,0.00
2022-08-01T00:25:54.901Z,0.00
2022-08-01T00:26:54.873Z,0.00
2022-08-01T00:27:54.834Z,0.00
2022-08-01T00:28:54.787Z,0.00
2022-08-01T00:30:12.532Z,0.00
2022-08-01T00:30:54.656Z,0.00
2022-08-01T00:31:54.643Z,0.00
2022-08-01T00:32:54.606Z,0.00
2022-08-01T00:33:54.511Z,0.00
2022-08-01T00:34:54.469Z,0.00
2022-08-01T00:35:54.438Z,0.00
2022-08-01T00:36:54.413Z,0.00
2022-08-01T00:37:54.343Z,0.00
2022-08-01T00:38:54.292Z,0.00
2022-08-01T00:39:54.246Z,0.00
2022-08-01T00:40:54.195Z,0.00
2022-08-01T00:41:59.451Z,0.00
2022-08-01T00:42:54.109Z,0.00
2022-08-01T00:43:54.027Z,0.00
2022-08-01T00:44:54.008Z,0.00
2022-08-01T00:45:53.989Z,0.00
2022-08-01T00:46:53.916Z,0.00
2022-08-01T00:47:55.083Z,0.00
2022-08-01T00:48:53.904Z,0.00
2022-08-01T00:49:53.779Z,0.00
2022-08-01T00:50:53.718Z,0.00
2022-08-01T00:51:53.682Z,0.00
2022-08-01T00:52:53.643Z,0.00
2022-08-01T00:53:53.551Z,0.00
2022-08-01T00:54:53.577Z,0.00
2022-08-01T00:55:53.482Z,0.00
2022-08-01T00:56:53.432Z,0.00
2022-08-01T00:58:02.384Z,0.00
2022-08-01T00:58:53.331Z,0.00
2022-08-01T00:59:53.409Z,0.00
2022-08-01T01:00:54.756Z,0.00
2022-08-01T01:01:53.705Z,0.00
2022-08-01T01:02:53.130Z,0.00
2022-08-01T01:04:00.386Z,0.00
2022-08-01T01:04:53.051Z,0.00
2022-08-01T01:05:52.984Z,0.00
2022-08-01T01:06:52.931Z,0.00
2022-08-01T01:07:52.878Z,0.00
2022-08-01T01:08:52.888Z,0.00
2022-08-01T01:09:52.793Z,0.00
2022-08-01T01:10:52.763Z,0.00
2022-08-01T01:11:52.701Z,0.00
2022-08-01T01:12:52.739Z,0.00
2022-08-01T01:13:52.587Z,0.00
2022-08-01T01:14:52.567Z,0.00
2022-08-01T01:15:52.509Z,0.00
2022-08-01T01:16:52.452Z,0.00
2022-08-01T01:17:52.524Z,0.00
2022-08-01T01:18:52.374Z,0.00
2022-08-01T01:19:52.311Z,0.00
2022-08-01T01:20:52.247Z,0.00
2022-08-01T01:21:52.227Z,0.00
2022-08-01T01:22:52.207Z,0.00
2022-08-01T01:23:52.142Z,0.00
2022-08-01T01:24:52.067Z,0.00
2022-08-01T01:25:52.009Z,0.00
2022-08-01T01:26:51.978Z,0.00
2022-08-01T01:27:51.946Z,0.00
2022-08-01T01:28:51.890Z,0.00
2022-08-01T01:29:58.749Z,0.00
2022-08-01T01:30:51.782Z,0.00
2022-08-01T01:31:51.729Z,0.00
2022-08-01T01:32:51.700Z,0.00
2022-08-01T01:33:51.646Z,0.00
2022-08-01T01:34:51.593Z,0.00
2022-08-01T01:35:51.540Z,0.00
2022-08-01T01:36:51.489Z,0.00
2022-08-01T01:37:51.440Z,0.00
2022-08-01T01:38:51.429Z,0.00
2022-08-01T01:39:54.377Z,0.00
2022-08-01T01:40:51.291Z,0.00
2022-08-01T01:41:51.222Z,0.00
2022-08-01T01:42:51.207Z,0.00
2022-08-01T01:43:51.153Z,0.00
2022-08-01T01:44:51.109Z,0.00
2022-08-01T01:45:51.063Z,0.00
2022-08-01T01:46:51.007Z,0.00
2022-08-01T01:47:50.953Z,0.00
2022-08-01T01:48:50.982Z,0.00
2022-08-01T01:49:50.840Z,0.00
2022-08-01T01:50:50.807Z,0.00
2022-08-01T01:51:57.390Z,0.00
2022-08-01T01:52:50.712Z,0.00
2022-08-01T01:53:50.679Z,0.00
2022-08-01T01:54:50.596Z,0.00
2022-08-01T01:55:50.584Z,0.00
2022-08-01T01:56:50.508Z,0.00
2022-08-01T01:57:50.470Z,0.00
2022-08-01T01:58:50.445Z,0.00
2022-08-01T01:59:50.392Z,0.00
2022-08-01T02:00:50.522Z,0.00
2022-08-01T02:02:05.061Z,0.00
2022-08-01T02:02:50.248Z,0.00
2022-08-01T02:03:50.169Z,0.00
2022-08-01T02:04:50.141Z,0.00
2022-08-01T02:05:50.070Z,0.00
2022-08-01T02:06:50.018Z,0.00
2022-08-01T02:07:49.987Z,0.00
2022-08-01T02:08:49.923Z,0.00
2022-08-01T02:09:49.898Z,0.00
2022-08-01T02:10:49.845Z,0.00
2022-08-01T02:12:05.043Z,0.00
2022-08-01T02:12:49.703Z,0.00
2022-08-01T02:13:49.664Z,0.00
2022-08-01T02:14:49.651Z,0.00
2022-08-01T02:16:00.456Z,0.00
2022-08-01T02:16:49.532Z,0.00
2022-08-01T02:17:49.498Z,0.00
2022-08-01T02:18:49.440Z,0.00
2022-08-01T02:19:49.405Z,0.00
2022-08-01T02:20:49.334Z,0.00
2022-08-01T02:21:49.288Z,0.00
2022-08-01T02:22:49.262Z,0.00
2022-08-01T02:23:49.203Z,0.00
2022-08-01T02:24:49.139Z,0.00
2022-08-01T02:26:11.373Z,0.00
2022-08-01T02:26:49.050Z,0.00
2022-08-01T02:27:49.030Z,0.00
2022-08-01T02:28:48.952Z,0.00
2022-08-01T02:29:48.889Z,0.00
2022-08-01T02:30:48.847Z,0.00
2022-08-01T02:31:48.818Z,0.00
2022-08-01T02:32:48.766Z,0.00
2022-08-01T02:33:48.698Z,0.00
2022-08-01T02:34:48.659Z,0.00
2022-08-01T02:36:30.452Z,0.00
2022-08-01T02:36:48.562Z,0.00
2022-08-01T02:37:48.515Z,0.00
2022-08-01T02:38:48.505Z,0.00
2022-08-01T02:39:48.388Z,0.00
2022-08-01T02:40:48.333Z,0.00
2022-08-01T02:41:48.310Z,0.00
2022-08-01T02:42:48.265Z,0.00
2022-08-01T02:43:53.079Z,0.00
2022-08-01T02:44:48.176Z,0.00
2022-08-01T02:45:48.155Z,0.00
2022-08-01T02:46:48.090Z,0.00
2022-08-01T02:47:48.029Z,0.00
2022-08-01T02:48:48.029Z,0.00
2022-08-01T02:49:53.618Z,0.00
2022-08-01T02:50:47.868Z,0.00
2022-08-01T02:51:47.850Z,0.00
2022-08-01T02:52:47.786Z,0.00
2022-08-01T02:53:47.735Z,0.00
2022-08-01T02:54:47.723Z,0.00
2022-08-01T02:55:47.662Z,0.00
2022-08-01T02:56:47.565Z,0.00
2022-08-01T02:57:52.415Z,0.00
2022-08-01T02:58:47.484Z,0.00
2022-08-01T02:59:47.427Z,0.00
2022-08-01T03:00:47.378Z,0.00
2022-08-01T03:01:47.432Z,0.00
2022-08-01T03:02:47.308Z,0.00
2022-08-01T03:03:47.237Z,0.00
2022-08-01T03:04:47.188Z,0.00
2022-08-01T03:05:47.147Z,0.00
2022-08-01T03:06:47.106Z,0.00
2022-08-01T03:07:48.377Z,0.00
2022-08-01T03:08:47.000Z,0.00
2022-08-01T03:09:46.926Z,0.00
2022-08-01T03:10:46.897Z,0.00
2022-08-01T03:11:56.587Z,0.00
2022-08-01T03:12:47.436Z,0.00
2022-08-01T03:13:46.704Z,0.00
2022-08-01T03:14:46.654Z,0.00
2022-08-01T03:15:46.607Z,0.00
2022-08-01T03:16:46.570Z,0.00
2022-08-01T03:17:46.523Z,0.00
2022-08-01T03:18:46.461Z,0.00
2022-08-01T03:19:46.407Z,0.00
2022-08-01T03:20:46.357Z,0.00
2022-08-01T03:21:46.311Z,0.00
2022-08-01T03:22:46.278Z,0.00
2022-08-01T03:23:46.211Z,0.00
2022-08-01T03:24:46.218Z,4.00
2022-08-01T03:25:46.114Z,4.00
2022-08-01T03:26:46.080Z,0.00
2022-08-01T03:27:46.026Z,0.00
2022-08-01T03:28:45.980Z,4.00
2022-08-01T03:29:45.915Z,4.00
2022-08-01T03:30:45.868Z,4.00
2022-08-01T03:31:45.817Z,0.00
2022-08-01T03:32:45.783Z,4.00
2022-08-01T03:33:45.719Z,4.00
2022-08-01T03:34:45.669Z,4.00
2022-08-01T03:35:45.621Z,4.00
2022-08-01T03:36:45.573Z,4.00
2022-08-01T03:38:06.297Z,12.00
2022-08-01T03:38:45.473Z,12.00
2022-08-01T03:39:45.422Z,16.00
2022-08-01T03:40:45.373Z,16.00
2022-08-01T03:41:45.325Z,20.00
2022-08-01T03:42:46.695Z,20.00
2022-08-01T03:43:45.238Z,28.00
2022-08-01T03:44:45.181Z,36.00
2022-08-01T03:45:45.148Z,40.00
2022-08-01T03:46:45.077Z,48.00
2022-08-01T03:47:45.115Z,56.00
2022-08-01T03:48:45.029Z,64.00
2022-08-01T03:49:44.942Z,72.00
2022-08-01T03:50:44.882Z,72.00
2022-08-01T03:51:44.832Z,80.00
2022-08-01T03:52:44.788Z,80.00
2022-08-01T03:53:44.734Z,80.00
2022-08-01T03:54:44.698Z,84.00
2022-08-01T03:55:44.636Z,84.00
2022-08-01T03:56:44.584Z,88.00
2022-08-01T03:57:44.537Z,84.00
2022-08-01T03:58:44.499Z,84.00
2022-08-01T03:59:44.436Z,88.00
2022-08-01T04:00:44.407Z,92.00
2022-08-01T04:01:44.423Z,100.00
2022-08-01T04:02:44.320Z,104.00
2022-08-01T04:03:44.247Z,112.00
2022-08-01T04:04:44.189Z,120.00
2022-08-01T04:05:44.161Z,128.00
2022-08-01T04:06:44.091Z,132.00
2022-08-01T04:07:44.038Z,132.00
2022-08-01T04:08:44.006Z,136.00
2022-08-01T04:09:43.945Z,132.00
2022-08-01T04:10:43.908Z,124.00
2022-08-01T04:11:43.849Z,120.00
2022-08-01T04:12:43.793Z,124.00
2022-08-01T04:13:44.488Z,136.00
2022-08-01T04:14:43.695Z,148.00
2022-08-01T04:15:43.655Z,148.00
2022-08-01T04:16:43.611Z,152.00
2022-08-01T04:17:43.547Z,164.00
2022-08-01T04:18:43.498Z,164.00
2022-08-01T04:19:43.449Z,180.00
2022-08-01T04:20:43.395Z,188.00
2022-08-01T04:21:43.365Z,188.00
2022-08-01T04:22:43.317Z,180.00
2022-08-01T04:23:43.250Z,172.00
2022-08-01T04:24:43.203Z,168.00
2022-08-01T04:25:43.152Z,172.00
2022-08-01T04:26:43.101Z,172.00
2022-08-01T04:27:51.152Z,172.00
2022-08-01T04:28:43.006Z,172.00
2022-08-01T04:29:42.954Z,176.00
2022-08-01T04:30:42.905Z,192.00
2022-08-01T04:31:42.867Z,192.00
2022-08-01T04:32:42.834Z,172.00
2022-08-01T04:33:42.758Z,160.00
2022-08-01T04:34:42.713Z,160.00
2022-08-01T04:36:01.418Z,156.00
2022-08-01T04:36:42.609Z,160.00
2022-08-01T04:37:42.564Z,168.00
2022-08-01T04:38:42.526Z,172.00
2022-08-01T04:39:50.523Z,180.00
2022-08-01T04:40:42.425Z,196.00
2022-08-01T04:41:42.363Z,208.00
2022-08-01T04:42:42.327Z,224.00
2022-08-01T04:43:44.193Z,236.00
2022-08-01T04:44:42.243Z,244.00
2022-08-01T04:45:42.166Z,260.00
2022-08-01T04:46:42.119Z,272.00
2022-08-01T04:47:42.082Z,280.00
2022-08-01T04:48:42.023Z,288.00
2022-08-01T04:49:48.793Z,288.00
2022-08-01T04:50:41.921Z,288.00
2022-08-01T04:51:41.887Z,292.00
2022-08-01T04:52:41.831Z,292.00
2022-08-01T04:53:41.771Z,296.00
2022-08-01T04:54:41.741Z,300.00
2022-08-01T04:55:41.675Z,312.00
2022-08-01T04:56:41.644Z,340.00
2022-08-01T04:57:41.574Z,376.00
2022-08-01T04:58:41.543Z,412.00
2022-08-01T04:59:41.477Z,440.00
2022-08-01T05:00:41.429Z,464.00
2022-08-01T05:01:41.439Z,468.00
2022-08-01T05:02:41.331Z,456.00
2022-08-01T05:03:41.284Z,444.00
2022-08-01T05:04:41.236Z,452.00
2022-08-01T05:05:41.183Z,444.00
2022-08-01T05:06:41.150Z,408.00
2022-08-01T05:07:45.087Z,356.00
2022-08-01T05:08:41.042Z,324.00
2022-08-01T05:09:40.989Z,308.00
2022-08-01T05:10:40.952Z,288.00
2022-08-01T05:11:40.889Z,288.00
2022-08-01T05:12:40.843Z,296.00
2022-08-01T05:13:40.794Z,308.00
2022-08-01T05:14:40.756Z,316.00
2022-08-01T05:15:40.709Z,320.00
2022-08-01T05:16:40.643Z,328.00
2022-08-01T05:17:40.612Z,336.00
2022-08-01T05:18:40.546Z,348.00
2022-08-01T05:19:40.497Z,352.00
2022-08-01T05:20:40.446Z,348.00
2022-08-01T05:21:40.403Z,340.00
2022-08-01T05:22:40.362Z,316.00
2022-08-01T05:23:43.113Z,300.00
2022-08-01T05:24:40.365Z,288.00
2022-08-01T05:25:57.831Z,292.00
2022-08-01T05:26:40.251Z,296.00
2022-08-01T05:27:40.121Z,284.00
2022-08-01T05:28:40.058Z,276.00
2022-08-01T05:29:44.412Z,284.00
2022-08-01T05:30:39.961Z,300.00
2022-08-01T05:31:39.910Z,296.00
2022-08-01T05:32:39.876Z,292.00
2022-08-01T05:33:39.820Z,296.00
2022-08-01T05:34:39.766Z,312.00
2022-08-01T05:35:48.277Z,344.00
2022-08-01T05:36:39.669Z,376.00
2022-08-01T05:37:39.634Z,384.00
2022-08-01T05:38:39.571Z,396.00
2022-08-01T05:39:39.530Z,412.00
2022-08-01T05:40:39.483Z,424.00
2022-08-01T05:41:39.424Z,428.00
2022-08-01T05:42:39.377Z,420.00
2022-08-01T05:43:39.326Z,420.00
2022-08-01T05:44:39.278Z,396.00
2022-08-01T05:45:39.250Z,380.00
2022-08-01T05:46:39.185Z,376.00
2022-08-01T05:47:43.051Z,384.00
2022-08-01T05:48:39.098Z,388.00
2022-08-01T05:49:39.141Z,392.00
2022-08-01T05:50:38.999Z,404.00
2022-08-01T05:51:38.937Z,416.00
2022-08-01T05:52:38.887Z,428.00
2022-08-01T05:53:38.855Z,444.00
2022-08-01T05:54:38.795Z,456.00
2022-08-01T05:55:38.744Z,476.00
2022-08-01T05:56:38.705Z,496.00
2022-08-01T05:57:39.166Z,508.00
2022-08-01T05:58:38.598Z,492.00
2022-08-01T05:59:38.560Z,484.00
2022-08-01T06:00:38.497Z,484.00
2022-08-01T06:01:38.502Z,488.00
2022-08-01T06:02:38.465Z,480.00
2022-08-01T06:03:38.352Z,480.00
2022-08-01T06:04:38.308Z,496.00
2022-08-01T06:05:38.253Z,520.00
2022-08-01T06:06:38.262Z,568.00
2022-08-01T06:07:38.548Z,604.00
2022-08-01T06:08:38.122Z,628.00
2022-08-01T06:09:38.060Z,632.00
2022-08-01T06:10:38.013Z,632.00
2022-08-01T06:11:37.960Z,648.00
2022-08-01T06:12:37.915Z,656.00
2022-08-01T06:13:44.989Z,716.00
2022-08-01T06:14:37.829Z,796.00
2022-08-01T06:15:37.766Z,812.00
2022-08-01T06:16:37.718Z,856.00
2022-08-01T06:17:37.673Z,884.00
2022-08-01T06:18:37.651Z,840.00
2022-08-01T06:19:37.575Z,808.00
2022-08-01T06:20:37.523Z,820.00
2022-08-01T06:21:37.473Z,796.00
2022-08-01T06:22:37.423Z,792.00
2022-08-01T06:23:37.390Z,804.00
2022-08-01T06:24:37.327Z,816.00
2022-08-01T06:25:37.297Z,832.00
2022-08-01T06:26:37.231Z,864.00
2022-08-01T06:27:37.191Z,856.00
2022-08-01T06:28:37.134Z,864.00
2022-08-01T06:29:37.090Z,860.00
2022-08-01T06:30:37.054Z,828.00
2022-08-01T06:31:36.990Z,784.00
2022-08-01T06:32:36.938Z,768.00
2022-08-01T06:33:36.890Z,780.00
2022-08-01T06:34:36.842Z,768.00
2022-08-01T06:35:36.805Z,724.00
2022-08-01T06:36:36.743Z,680.00
2022-08-01T06:37:36.699Z,644.00
2022-08-01T06:38:36.646Z,608.00
2022-08-01T06:39:36.619Z,588.00
2022-08-01T06:40:36.550Z,588.00
2022-08-01T06:41:36.499Z,588.00
2022-08-01T06:42:36.478Z,596.00
2022-08-01T06:43:36.416Z,608.00
2022-08-01T06:44:36.353Z,624.00
2022-08-01T06:45:36.308Z,636.00
2022-08-01T06:46:36.265Z,660.00
2022-08-01T06:47:36.222Z,696.00
2022-08-01T06:48:36.161Z,708.00
2022-08-01T06:49:36.199Z,724.00
2022-08-01T06:50:36.064Z,744.00
2022-08-01T06:51:36.027Z,764.00
2022-08-01T06:52:35.963Z,800.00
2022-08-01T06:53:36.708Z,828.00
2022-08-01T06:54:35.915Z,780.00
2022-08-01T06:55:35.821Z,768.00
2022-08-01T06:56:35.783Z,768.00
2022-08-01T06:57:35.722Z,780.00
2022-08-01T06:58:35.816Z,808.00
2022-08-01T06:59:35.624Z,828.00
2022-08-01T07:00:35.625Z,876.00
2022-08-01T07:01:35.593Z,944.00
2022-08-01T07:02:35.478Z,952.00
2022-08-01T07:03:52.382Z,888.00
2022-08-01T07:04:35.380Z,800.00
2022-08-01T07:05:35.411Z,756.00
2022-08-01T07:06:35.287Z,736.00
2022-08-01T07:07:35.253Z,704.00
2022-08-01T07:08:35.203Z,684.00
2022-08-01T07:09:35.142Z,704.00
2022-08-01T07:10:35.091Z,748.00
2022-08-01T07:11:35.047Z,792.00
2022-08-01T07:12:35.093Z,852.00
2022-08-01T07:13:36.619Z,884.00
2022-08-01T07:14:34.897Z,924.00
2022-08-01T07:15:34.849Z,956.00
2022-08-01T07:16:34.804Z,984.00
2022-08-01T07:17:34.766Z,1000.00
2022-08-01T07:18:34.714Z,1032.00
2022-08-01T07:19:35.632Z,1072.00
2022-08-01T07:20:41.299Z,1136.00
2022-08-01T07:21:38.488Z,1216.00
2022-08-01T07:22:34.507Z,1260.00
2022-08-01T07:23:36.644Z,1296.00
2022-08-01T07:24:34.408Z,1324.00
2022-08-01T07:25:34.362Z,1300.00
2022-08-01T07:26:34.313Z,1312.00
2022-08-01T07:27:34.267Z,1384.00
2022-08-01T07:28:34.230Z,1460.00
2022-08-01T07:29:34.170Z,1540.00
2022-08-01T07:30:34.137Z,1624.00
2022-08-01T07:31:34.086Z,1732.00
2022-08-01T07:32:34.023Z,1796.00
2022-08-01T07:33:48.686Z,1768.00
2022-08-01T07:34:33.940Z,1696.00
2022-08-01T07:35:33.876Z,1508.00
2022-08-01T07:36:33.830Z,1348.00
2022-08-01T07:37:46.324Z,1300.00
2022-08-01T07:38:33.732Z,1340.00
2022-08-01T07:39:33.700Z,1344.00
2022-08-01T07:40:33.660Z,1300.00
2022-08-01T07:41:53.570Z,1252.00
2022-08-01T07:42:33.561Z,1256.00
2022-08-01T07:43:33.494Z,1324.00
2022-08-01T07:44:33.458Z,1388.00
2022-08-01T07:45:33.502Z,1428.00
2022-08-01T07:46:33.347Z,1408.00
2022-08-01T07:47:33.299Z,1348.00
2022-08-01T07:48:33.250Z,1284.00
2022-08-01T07:49:37.771Z,1212.00
2022-08-01T07:50:34.165Z,1152.00
2022-08-01T07:51:33.106Z,1108.00
2022-08-01T07:52:33.675Z,1056.00
2022-08-01T07:53:33.009Z,1060.00
2022-08-01T07:54:34.396Z,1080.00
2022-08-01T07:55:32.918Z,1124.00
2022-08-01T07:56:32.870Z,1180.00
2022-08-01T07:57:32.817Z,1180.00
2022-08-01T07:58:32.768Z,1208.00
2022-08-01T07:59:32.724Z,1300.00
2022-08-01T08:00:32.704Z,1388.00
2022-08-01T08:01:32.659Z,1520.00
2022-08-01T08:02:32.590Z,1692.00
2022-08-01T08:03:32.525Z,1936.00
2022-08-01T08:04:32.486Z,2236.00
2022-08-01T08:05:58.841Z,2508.00
2022-08-01T08:06:32.386Z,2432.00
2022-08-01T08:07:32.347Z,2356.00
2022-08-01T08:08:32.285Z,2464.00
2022-08-01T08:09:37.984Z,2872.00
2022-08-01T08:10:32.189Z,3632.00
2022-08-01T08:11:32.153Z,4856.00
2022-08-01T08:12:32.092Z,6496.00
2022-08-01T08:13:32.051Z,6912.00
2022-08-01T08:14:32.856Z,7228.00
2022-08-01T08:15:31.982Z,6828.00
2022-08-01T08:16:31.904Z,6528.00
2022-08-01T08:17:35.621Z,6044.00
2022-08-01T08:18:31.825Z,6296.00
2022-08-01T08:19:37.658Z,6264.00
2022-08-01T08:20:31.730Z,6352.00
2022-08-01T08:21:31.664Z,6404.00
2022-08-01T08:22:31.618Z,7072.00
2022-08-01T08:23:42.808Z,6096.00
2022-08-01T08:24:31.526Z,5728.00
2022-08-01T08:25:31.476Z,5288.00
2022-08-01T08:26:31.434Z,5136.00
2022-08-01T08:27:31.383Z,4176.00
2022-08-01T08:28:31.361Z,3324.00
2022-08-01T08:29:31.289Z,2768.00
2022-08-01T08:30:31.243Z,2516.00
2022-08-01T08:31:51.281Z,2368.00
2022-08-01T08:32:31.152Z,2312.00
2022-08-01T08:33:31.105Z,2228.00
2022-08-01T08:34:31.071Z,2192.00
2022-08-01T08:35:53.496Z,2376.00
2022-08-01T08:36:31.702Z,2360.00
2022-08-01T08:37:31.529Z,2448.00
2022-08-01T08:38:30.886Z,2524.00
2022-08-01T08:39:30.831Z,2608.00
2022-08-01T08:40:30.778Z,2708.00
2022-08-01T08:41:36.872Z,2592.00
2022-08-01T08:42:30.684Z,2572.00
2022-08-01T08:43:30.657Z,2880.00
2022-08-01T08:44:30.606Z,3420.00
2022-08-01T08:45:56.267Z,5252.00
2022-08-01T08:46:30.499Z,6124.00
2022-08-01T08:47:30.469Z,6740.00
2022-08-01T08:48:30.407Z,7192.00
2022-08-01T08:49:36.099Z,7276.00
2022-08-01T08:50:30.316Z,6928.00
2022-08-01T08:51:30.283Z,6300.00
2022-08-01T08:52:30.221Z,7796.00
2022-08-01T08:53:30.756Z,7600.00
2022-08-01T08:54:31.625Z,7188.00
2022-08-01T08:55:30.090Z,6548.00
2022-08-01T08:56:30.041Z,7116.00
2022-08-01T08:57:30.006Z,6852.00
2022-08-01T08:58:31.473Z,6388.00
2022-08-01T08:59:29.946Z,5700.00
2022-08-01T09:00:29.859Z,5044.00
2022-08-01T09:01:29.817Z,4020.00
2022-08-01T09:02:29.778Z,3604.00
2022-08-01T09:03:29.796Z,3384.00
2022-08-01T09:04:29.693Z,3080.00
2022-08-01T09:05:38.991Z,2912.00
2022-08-01T09:06:29.589Z,2644.00
2022-08-01T09:07:29.552Z,2484.00
2022-08-01T09:08:29.519Z,2528.00
2022-08-01T09:09:29.462Z,3736.00
2022-08-01T09:10:29.417Z,2724.00
2022-08-01T09:11:29.367Z,4600.00
2022-08-01T09:12:36.922Z,5204.00
2022-08-01T09:13:29.295Z,5648.00
2022-08-01T09:14:29.247Z,5908.00
2022-08-01T09:15:29.259Z,5784.00
2022-08-01T09:16:29.153Z,6036.00
2022-08-01T09:17:29.100Z,5616.00
2022-08-01T09:18:29.058Z,6064.00
2022-08-01T09:19:40.388Z,5736.00
2022-08-01T09:20:28.965Z,5228.00
2022-08-01T09:21:28.979Z,4880.00
2022-08-01T09:22:28.895Z,4780.00
2022-08-01T09:23:28.841Z,4708.00
2022-08-01T09:24:30.368Z,4688.00
2022-08-01T09:25:29.659Z,4580.00
2022-08-01T09:26:28.709Z,4268.00
2022-08-01T09:27:28.666Z,3872.00
2022-08-01T09:28:28.639Z,3908.00
2022-08-01T09:29:38.165Z,3960.00
2022-08-01T09:30:28.528Z,3940.00
2022-08-01T09:31:38.113Z,3884.00
2022-08-01T09:32:32.734Z,3900.00
2022-08-01T09:33:28.720Z,4256.00
2022-08-01T09:34:29.191Z,6496.00
2022-08-01T09:35:30.172Z,6336.00
2022-08-01T09:36:28.279Z,5240.00
2022-08-01T09:37:28.246Z,4976.00
2022-08-01T09:38:28.219Z,4620.00
2022-08-01T09:39:28.137Z,4216.00
2022-08-01T09:40:28.102Z,4028.00
2022-08-01T09:41:28.102Z,4180.00
2022-08-01T09:42:28.907Z,4252.00
2022-08-01T09:43:27.989Z,4452.00
2022-08-01T09:44:39.888Z,4644.00
2022-08-01T09:45:27.874Z,4672.00
2022-08-01T09:46:28.589Z,4512.00
2022-08-01T09:47:27.787Z,4196.00
2022-08-01T09:48:29.343Z,5252.00
2022-08-01T09:49:27.775Z,4432.00
2022-08-01T09:50:27.655Z,3924.00
2022-08-01T09:51:58.585Z,3832.00
2022-08-01T09:52:29.306Z,4224.00
2022-08-01T09:53:30.118Z,4244.00
2022-08-01T09:54:27.477Z,4276.00
2022-08-01T09:55:27.458Z,4096.00
2022-08-01T09:56:27.455Z,3824.00
2022-08-01T09:57:27.361Z,3648.00
2022-08-01T09:58:27.343Z,3484.00
2022-08-01T09:59:36.183Z,3360.00
2022-08-01T10:00:44.489Z,3224.00
2022-08-01T10:01:27.168Z,3168.00
2022-08-01T10:02:27.239Z,3160.00
2022-08-01T10:03:27.168Z,3188.00
2022-08-01T10:04:27.053Z,3176.00
2022-08-01T10:05:26.996Z,3020.00
2022-08-01T10:06:26.951Z,2900.00
2022-08-01T10:07:27.714Z,2912.00
2022-08-01T10:08:26.865Z,2900.00
2022-08-01T10:09:26.836Z,2840.00
2022-08-01T10:10:29.115Z,2896.00
2022-08-01T10:11:36.259Z,2996.00
2022-08-01T10:12:26.700Z,3000.00
2022-08-01T10:13:26.646Z,2964.00
2022-08-01T10:14:26.604Z,2848.00
2022-08-01T10:15:37.376Z,2732.00
2022-08-01T10:16:26.535Z,2740.00
2022-08-01T10:17:26.476Z,2796.00
2022-08-01T10:18:26.637Z,2916.00
2022-08-01T10:19:29.059Z,3060.00
2022-08-01T10:20:30.191Z,3152.00
2022-08-01T10:21:45.448Z,3196.00
2022-08-01T10:22:26.249Z,3008.00
2022-08-01T10:23:39.790Z,2896.00
2022-08-01T10:24:26.184Z,2900.00
2022-08-01T10:25:42.233Z,2748.00
2022-08-01T10:26:26.094Z,2692.00
2022-08-01T10:27:38.046Z,2640.00
2022-08-01T10:28:25.987Z,2568.00
2022-08-01T10:29:46.507Z,2412.00
2022-08-01T10:30:25.899Z,2300.00
2022-08-01T10:31:30.754Z,2232.00
2022-08-01T10:32:25.825Z,2240.00
2022-08-01T10:33:51.447Z,2200.00
2022-08-01T10:34:25.720Z,2064.00
2022-08-01T10:35:46.894Z,1960.00
2022-08-01T10:36:25.990Z,1900.00
2022-08-01T10:37:26.955Z,1880.00
2022-08-01T10:38:25.547Z,1872.00
2022-08-01T10:39:25.495Z,1860.00
2022-08-01T10:40:31.677Z,1884.00
2022-08-01T10:41:25.411Z,2560.00
2022-08-01T10:42:25.364Z,2144.00
2022-08-01T10:43:25.326Z,4364.00
2022-08-01T10:44:25.331Z,4536.00
2022-08-01T10:45:25.249Z,4592.00
2022-08-01T10:46:25.190Z,4548.00
2022-08-01T10:47:27.005Z,4436.00
2022-08-01T10:48:25.117Z,4560.00
2022-08-01T10:49:25.091Z,4592.00
2022-08-01T10:50:26.117Z,4532.00
2022-08-01T10:51:34.765Z,4528.00
2022-08-01T10:52:24.946Z,4648.00
2022-08-01T10:53:31.805Z,4752.00
2022-08-01T10:54:25.170Z,3116.00
2022-08-01T10:55:24.794Z,2832.00
2022-08-01T10:56:27.139Z,4676.00
2022-08-01T10:57:27.596Z,4864.00
2022-08-01T10:58:24.689Z,3732.00
2022-08-01T10:59:29.161Z,3964.00
2022-08-01T11:00:25.358Z,3168.00
2022-08-01T11:01:25.915Z,5368.00
2022-08-01T11:02:24.498Z,5576.00
2022-08-01T11:03:47.608Z,5768.00
2022-08-01T11:04:24.405Z,5868.00
2022-08-01T11:05:24.365Z,6028.00
2022-08-01T11:06:24.352Z,6060.00
2022-08-01T11:07:25.749Z,4176.00
2022-08-01T11:08:24.238Z,3888.00
2022-08-01T11:09:24.206Z,3664.00
2022-08-01T11:10:24.360Z,3668.00
2022-08-01T11:11:24.111Z,4924.00
2022-08-01T11:12:25.175Z,3964.00
2022-08-01T11:13:24.023Z,6040.00
2022-08-01T11:14:30.569Z,6112.00
2022-08-01T11:15:29.258Z,4152.00
2022-08-01T11:16:24.326Z,4180.00
2022-08-01T11:17:23.862Z,3644.00
2022-08-01T11:18:27.439Z,3456.00
2022-08-01T11:19:23.766Z,3276.00
2022-08-01T11:20:23.791Z,3192.00
2022-08-01T11:21:56.816Z,3160.00
2022-08-01T11:22:25.788Z,3096.00
2022-08-01T11:23:23.713Z,2984.00
2022-08-01T11:24:23.555Z,2892.00
2022-08-01T11:26:03.898Z,2832.00
2022-08-01T11:26:29.228Z,2744.00
2022-08-01T11:27:23.917Z,2612.00
2022-08-01T11:28:30.185Z,2472.00
2022-08-01T11:29:23.394Z,2336.00
2022-08-01T11:30:23.336Z,2276.00
2022-08-01T11:31:23.273Z,2280.00
2022-08-01T11:32:23.217Z,2324.00
2022-08-01T11:33:23.179Z,2336.00
2022-08-01T11:34:23.151Z,2328.00
2022-08-01T11:35:23.086Z,2300.00
2022-08-01T11:36:48.739Z,2240.00
2022-08-01T11:37:23.000Z,2220.00
2022-08-01T11:38:22.960Z,2220.00
2022-08-01T11:39:22.921Z,2216.00
2022-08-01T11:40:25.063Z,2196.00
2022-08-01T11:41:37.649Z,2204.00
2022-08-01T11:42:22.790Z,2232.00
2022-08-01T11:43:22.742Z,2264.00
2022-08-01T11:44:24.954Z,2312.00
2022-08-01T11:45:22.678Z,2360.00
2022-08-01T11:46:22.609Z,2400.00
2022-08-01T11:47:22.569Z,2696.00
2022-08-01T11:48:22.526Z,2688.00
2022-08-01T11:49:22.564Z,2748.00
2022-08-01T11:50:22.441Z,4456.00
2022-08-01T11:51:25.777Z,2816.00
2022-08-01T11:52:22.354Z,3600.00
2022-08-01T11:53:22.314Z,2488.00
2022-08-01T11:54:35.606Z,2464.00
2022-08-01T11:55:22.244Z,2440.00
2022-08-01T11:56:22.182Z,2452.00
2022-08-01T11:57:23.299Z,2504.00
2022-08-01T11:58:29.207Z,2540.00
2022-08-01T11:59:22.052Z,2576.00
2022-08-01T12:00:22.013Z,2584.00
2022-08-01T12:01:21.977Z,2616.00
2022-08-01T12:02:30.099Z,2632.00
2022-08-01T12:03:33.022Z,2620.00
2022-08-01T12:04:21.874Z,2556.00
2022-08-01T12:05:24.599Z,2520.00
2022-08-01T12:06:21.752Z,2504.00
2022-08-01T12:07:21.718Z,2500.00
2022-08-01T12:08:21.666Z,2496.00
2022-08-01T12:09:21.627Z,2516.00
2022-08-01T12:10:21.601Z,2564.00
2022-08-01T12:11:21.536Z,2648.00
2022-08-01T12:12:21.493Z,2684.00
2022-08-01T12:13:21.454Z,2752.00
2022-08-01T12:14:21.405Z,2668.00
2022-08-01T12:15:21.365Z,2668.00
2022-08-01T12:16:21.338Z,2696.00
2022-08-01T12:17:21.282Z,2700.00
2022-08-01T12:18:21.235Z,2684.00
2022-08-01T12:19:21.767Z,2636.00
2022-08-01T12:20:21.169Z,2580.00
2022-08-01T12:21:21.117Z,2508.00
2022-08-01T12:22:21.062Z,2420.00
2022-08-01T12:23:21.036Z,2348.00
2022-08-01T12:24:20.977Z,2276.00
2022-08-01T12:25:20.930Z,2236.00
2022-08-01T12:26:28.611Z,2208.00
2022-08-01T12:27:20.844Z,2136.00
2022-08-01T12:28:20.804Z,2092.00
2022-08-01T12:29:20.784Z,2056.00
2022-08-01T12:30:20.718Z,2040.00
2022-08-01T12:31:20.674Z,2040.00
2022-08-01T12:32:27.692Z,2036.00